createdAt,value
2023-03-27T00:01:57.540Z,6.00
2023-03-27T00:04:31.178Z,6.00
2023-03-27T00:07:04.805Z,6.00
2023-03-27T00:09:39.243Z,6.00
2023-03-27T00:12:14.114Z,6.00
2023-03-27T00:14:48.209Z,6.00
2023-03-27T00:17:21.649Z,6.00
2023-03-27T00:19:55.143Z,6.00
2023-03-27T00:22:30.068Z,6.00
2023-03-27T00:25:03.533Z,6.00
2023-03-27T00:27:38.513Z,6.00
2023-03-27T00:30:13.070Z,6.00
2023-03-27T00:32:46.945Z,6.00
2023-03-27T00:35:20.477Z,6.00
2023-03-27T00:37:54.376Z,6.00
2023-03-27T00:40:28.237Z,6.00
2023-03-27T00:43:03.126Z,6.10
2023-03-27T00:45:37.868Z,6.10
2023-03-27T00:48:11.410Z,6.10
2023-03-27T00:50:46.757Z,6.10
2023-03-27T00:53:23.687Z,6.10
2023-03-27T00:56:01.240Z,6.10
2023-03-27T00:58:43.834Z,6.10
2023-03-27T01:01:18.499Z,6.10
2023-03-27T01:03:53.858Z,6.10
2023-03-27T01:06:28.666Z,6.10
2023-03-27T01:09:02.144Z,6.10
2023-03-27T01:11:45.776Z,6.20
2023-03-27T01:14:31.443Z,6.10
2023-03-27T01:17:23.211Z,6.10
2023-03-27T01:20:42.472Z,6.10
2023-03-27T01:23:59.004Z,6.10
2023-03-27T01:26:51.679Z,6.10
2023-03-27T01:29:35.920Z,6.10
2023-03-27T01:33:04.874Z,6.10
2023-03-27T01:36:04.613Z,6.20
2023-03-27T01:39:00.187Z,6.20
2023-03-27T01:41:43.791Z,6.20
2023-03-27T01:44:23.244Z,6.20
2023-03-27T01:47:02.773Z,6.20
2023-03-27T01:49:41.111Z,6.10
2023-03-27T01:52:19.801Z,6.20
2023-03-27T01:54:58.292Z,6.20
2023-03-27T01:57:36.855Z,6.20
2023-03-27T02:00:24.911Z,6.20
2023-03-27T02:03:16.832Z,6.20
2023-03-27T02:05:56.402Z,6.20
2023-03-27T02:08:37.840Z,6.20
2023-03-27T02:11:30.310Z,6.20
2023-03-27T02:14:07.498Z,6.20
2023-03-27T02:16:46.408Z,6.10
2023-03-27T02:19:24.517Z,6.10
2023-03-27T02:21:58.047Z,6.10
2023-03-27T02:24:31.692Z,6.10
2023-03-27T02:27:15.704Z,6.10
2023-03-27T02:30:08.281Z,6.20
2023-03-27T02:32:49.359Z,6.20
2023-03-27T02:35:34.479Z,6.20
2023-03-27T02:38:13.567Z,6.20
2023-03-27T02:41:05.067Z,6.20
2023-03-27T02:44:02.190Z,6.20
2023-03-27T02:46:54.305Z,6.30
2023-03-27T02:49:32.601Z,6.30
2023-03-27T02:52:12.054Z,6.30
2023-03-27T02:54:49.943Z,6.30
2023-03-27T02:57:27.667Z,6.30
2023-03-27T03:00:42.055Z,6.30
2023-03-27T03:03:39.931Z,6.30
2023-03-27T03:06:29.676Z,6.30
2023-03-27T03:09:06.301Z,6.30
2023-03-27T03:11:46.231Z,6.30
2023-03-27T03:14:22.568Z,6.30
2023-03-27T03:16:57.699Z,6.30
2023-03-27T03:19:31.436Z,6.20
2023-03-27T03:22:05.367Z,6.30
2023-03-27T03:24:43.742Z,6.30
2023-03-27T03:27:21.110Z,6.30
2023-03-27T03:30:10.710Z,6.30
2023-03-27T03:33:00.172Z,6.20
2023-03-27T03:35:35.003Z,6.30
2023-03-27T03:38:14.104Z,6.30
2023-03-27T03:40:54.311Z,6.30
2023-03-27T03:43:30.409Z,6.30
2023-03-27T03:46:05.243Z,6.30
2023-03-27T03:48:40.178Z,6.30
2023-03-27T03:51:13.707Z,6.30
2023-03-27T03:53:47.333Z,6.40
2023-03-27T03:56:21.286Z,6.30
2023-03-27T03:58:56.269Z,6.30
2023-03-27T04:01:30.212Z,6.30
2023-03-27T04:04:09.515Z,6.40
2023-03-27T04:07:17.723Z,6.30
2023-03-27T04:09:54.151Z,6.30
2023-03-27T04:12:33.639Z,6.30
2023-03-27T04:15:09.238Z,6.30
2023-03-27T04:18:16.519Z,6.30
2023-03-27T04:20:51.573Z,6.30
2023-03-27T04:23:30.319Z,6.30
2023-03-27T04:26:04.425Z,6.30
2023-03-27T04:28:58.312Z,6.30
2023-03-27T04:31:52.047Z,6.30
2023-03-27T04:34:44.102Z,6.30
2023-03-27T04:37:33.812Z,6.30
2023-03-27T04:40:21.593Z,6.30
2023-03-27T04:42:56.038Z,6.30
2023-03-27T04:45:29.753Z,6.30
2023-03-27T04:48:03.332Z,6.20
2023-03-27T04:50:37.592Z,6.20
2023-03-27T04:53:12.848Z,6.30
2023-03-27T04:55:51.832Z,6.30
2023-03-27T04:58:26.858Z,6.30
2023-03-27T05:01:02.525Z,6.30
2023-03-27T05:03:56.452Z,6.30
2023-03-27T05:06:41.328Z,6.30
2023-03-27T05:09:20.804Z,6.30
2023-03-27T05:11:55.501Z,6.30
2023-03-27T05:14:29.191Z,6.30
2023-03-27T05:17:03.478Z,6.30
2023-03-27T05:19:37.454Z,6.30
2023-03-27T05:22:11.077Z,6.40
2023-03-27T05:24:55.753Z,6.40
2023-03-27T05:27:29.405Z,6.40
2023-03-27T05:30:03.904Z,6.40
2023-03-27T05:32:38.151Z,6.40
2023-03-27T05:35:23.452Z,6.40
2023-03-27T05:37:59.081Z,6.40
2023-03-27T05:40:57.442Z,6.40
2023-03-27T05:43:31.532Z,6.40
2023-03-27T05:46:05.641Z,6.40
2023-03-27T05:48:39.478Z,6.40
2023-03-27T05:51:13.792Z,6.40
2023-03-27T05:53:47.366Z,6.40
2023-03-27T05:56:31.377Z,6.50
2023-03-27T05:59:07.043Z,6.50
2023-03-27T06:01:42.718Z,6.50
2023-03-27T06:04:17.926Z,6.60
2023-03-27T06:07:14.948Z,6.60
2023-03-27T06:09:49.598Z,6.60
2023-03-27T06:12:43.355Z,6.60
2023-03-27T06:15:33.662Z,6.70
2023-03-27T06:18:23.425Z,6.70
2023-03-27T06:20:57.017Z,6.80
2023-03-27T06:23:31.924Z,6.80
2023-03-27T06:26:06.135Z,6.80
2023-03-27T06:28:41.058Z,6.90
2023-03-27T06:31:17.721Z,6.90
2023-03-27T06:34:09.767Z,7.00
2023-03-27T06:36:50.734Z,7.00
2023-03-27T06:39:24.448Z,7.10
2023-03-27T06:41:59.263Z,7.10
2023-03-27T06:44:42.305Z,7.20
2023-03-27T06:47:19.516Z,7.20
2023-03-27T06:49:55.710Z,7.20
2023-03-27T06:52:30.392Z,7.30
2023-03-27T06:55:15.316Z,7.30
2023-03-27T06:57:58.659Z,7.40
2023-03-27T07:00:35.412Z,7.40
2023-03-27T07:03:33.060Z,7.40
2023-03-27T07:06:48.807Z,7.50
2023-03-27T07:09:22.795Z,7.50
2023-03-27T07:12:06.365Z,7.50
2023-03-27T07:14:41.092Z,7.60
2023-03-27T07:17:16.153Z,7.60
2023-03-27T07:20:02.980Z,7.60
2023-03-27T07:22:37.263Z,7.70
2023-03-27T07:25:15.074Z,7.70
2023-03-27T07:27:50.041Z,7.70
2023-03-27T07:30:24.084Z,7.80
2023-03-27T07:32:59.656Z,7.80
2023-03-27T07:35:35.286Z,7.90
2023-03-27T07:38:27.424Z,7.90
2023-03-27T07:41:13.931Z,7.90
2023-03-27T07:44:06.809Z,7.90
2023-03-27T07:46:52.678Z,8.00
2023-03-27T07:49:38.581Z,8.00
2023-03-27T07:52:16.371Z,8.00
2023-03-27T07:54:57.956Z,8.00
2023-03-27T07:57:57.200Z,8.10
2023-03-27T08:00:35.624Z,8.10
2023-03-27T08:03:17.645Z,8.10
2023-03-27T08:05:58.235Z,8.10
2023-03-27T08:08:34.291Z,8.10
2023-03-27T08:11:19.467Z,8.10
2023-03-27T08:14:01.406Z,8.10
2023-03-27T08:16:35.153Z,8.10
2023-03-27T08:19:08.895Z,8.00
2023-03-27T08:21:47.573Z,8.10
2023-03-27T08:24:22.423Z,8.10
2023-03-27T08:27:18.664Z,8.10
2023-03-27T08:29:53.220Z,8.10
2023-03-27T08:32:27.033Z,8.10
2023-03-27T08:35:02.160Z,8.10
2023-03-27T08:37:37.201Z,8.00
2023-03-27T08:40:34.010Z,8.00
2023-03-27T08:43:32.743Z,8.00
2023-03-27T08:46:10.635Z,7.90
2023-03-27T08:48:49.564Z,7.90
2023-03-27T08:51:27.230Z,7.90
2023-03-27T08:54:07.776Z,7.90
2023-03-27T08:56:42.616Z,7.90
2023-03-27T08:59:18.920Z,7.80
2023-03-27T09:01:59.644Z,7.80
2023-03-27T09:04:41.669Z,7.80
2023-03-27T09:07:20.641Z,7.80
2023-03-27T09:10:19.404Z,7.80
2023-03-27T09:13:05.038Z,7.80
2023-03-27T09:15:47.906Z,7.80
2023-03-27T09:18:27.514Z,7.70
2023-03-27T09:21:07.990Z,7.60
2023-03-27T09:23:45.474Z,7.60
2023-03-27T09:26:39.122Z,7.60
2023-03-27T09:29:19.982Z,7.70
2023-03-27T09:31:59.692Z,7.70
2023-03-27T09:34:34.045Z,7.70
2023-03-27T09:37:13.193Z,7.70
2023-03-27T09:39:51.539Z,7.60
2023-03-27T09:42:40.017Z,7.70
2023-03-27T09:45:14.683Z,7.70
2023-03-27T09:48:04.367Z,7.80
2023-03-27T09:50:47.402Z,7.80
2023-03-27T09:53:39.220Z,7.80
2023-03-27T09:56:18.487Z,7.70
2023-03-27T09:58:59.089Z,7.70
2023-03-27T10:01:36.043Z,7.70
2023-03-27T10:04:20.566Z,7.70
2023-03-27T10:07:05.438Z,7.60
2023-03-27T10:10:13.946Z,7.60
2023-03-27T10:13:14.093Z,7.50
2023-03-27T10:16:02.605Z,7.40
2023-03-27T10:18:46.860Z,7.40
2023-03-27T10:21:30.153Z,7.30
2023-03-27T10:24:06.607Z,7.30
2023-03-27T10:27:01.204Z,7.20
2023-03-27T10:29:40.509Z,7.30
2023-03-27T10:32:19.353Z,7.30
2023-03-27T10:35:25.041Z,7.30
2023-03-27T10:38:23.948Z,7.40
2023-03-27T10:41:14.791Z,7.50
2023-03-27T10:43:54.716Z,7.50
2023-03-27T10:46:31.279Z,7.40
2023-03-27T10:49:25.518Z,7.50
2023-03-27T10:52:08.862Z,7.40
2023-03-27T10:55:15.489Z,7.40
2023-03-27T10:57:55.086Z,7.40
2023-03-27T11:00:38.129Z,7.40
2023-03-27T11:03:17.991Z,7.40
2023-03-27T11:05:55.576Z,7.40
2023-03-27T11:08:55.883Z,7.40
2023-03-27T11:11:36.759Z,7.40
2023-03-27T11:14:21.298Z,7.40
2023-03-27T11:16:59.651Z,7.40
2023-03-27T11:20:07.282Z,7.40
2023-03-27T11:22:45.385Z,7.50
2023-03-27T11:25:38.009Z,7.50
2023-03-27T11:28:22.212Z,7.60
2023-03-27T11:31:12.691Z,7.60
2023-03-27T11:33:53.648Z,7.60
2023-03-27T11:36:40.880Z,7.50
2023-03-27T11:39:44.541Z,7.60
2023-03-27T11:42:20.516Z,7.60
2023-03-27T11:44:55.861Z,7.60
2023-03-27T11:47:57.566Z,7.60
2023-03-27T11:50:42.486Z,7.60
2023-03-27T11:53:39.268Z,7.60
2023-03-27T11:56:54.513Z,7.60
2023-03-27T12:00:04.654Z,7.50
2023-03-27T12:03:12.911Z,7.50
2023-03-27T12:06:03.148Z,7.50
2023-03-27T12:09:08.168Z,7.50
2023-03-27T12:12:20.053Z,7.50
2023-03-27T12:15:09.821Z,7.40
2023-03-27T12:17:58.246Z,7.40
2023-03-27T12:20:52.853Z,7.30
2023-03-27T12:23:45.880Z,7.20
2023-03-27T12:27:05.281Z,7.20
2023-03-27T12:30:17.924Z,7.20
2023-03-27T12:33:17.416Z,7.20
2023-03-27T12:35:54.621Z,7.20
2023-03-27T12:38:31.299Z,7.20
2023-03-27T12:41:13.860Z,7.20
2023-03-27T12:44:04.567Z,7.20
2023-03-27T12:46:44.102Z,7.10
2023-03-27T12:49:48.186Z,7.10
2023-03-27T12:52:31.369Z,7.20
2023-03-27T12:55:21.662Z,7.20
2023-03-27T12:58:06.195Z,7.20
2023-03-27T13:01:03.652Z,7.20
2023-03-27T13:04:21.003Z,7.20
2023-03-27T13:07:03.023Z,7.10
2023-03-27T13:10:16.340Z,7.00
2023-03-27T13:13:17.149Z,6.90
2023-03-27T13:16:21.387Z,6.70
2023-03-27T13:19:22.973Z,6.60
2023-03-27T13:22:24.574Z,6.50
2023-03-27T13:25:14.798Z,6.50
2023-03-27T13:28:08.532Z,6.50
2023-03-27T13:30:54.882Z,6.50
2023-03-27T13:34:14.164Z,6.40
2023-03-27T13:37:06.318Z,6.20
2023-03-27T13:39:47.085Z,6.20
2023-03-27T13:42:23.662Z,6.00
2023-03-27T13:45:02.059Z,5.90
2023-03-27T13:48:16.233Z,5.80
2023-03-27T13:51:40.837Z,5.70
2023-03-27T13:54:52.351Z,5.60
2023-03-27T13:57:44.310Z,5.30
2023-03-27T14:00:43.850Z,5.20
2023-03-27T14:03:52.515Z,5.10
2023-03-27T14:06:59.168Z,4.90
2023-03-27T14:09:52.798Z,4.70
2023-03-27T14:12:49.640Z,4.60
2023-03-27T14:16:06.397Z,4.50
2023-03-27T14:19:23.311Z,4.40
2023-03-27T14:22:00.488Z,4.20
2023-03-27T14:24:43.530Z,4.10
2023-03-27T14:27:49.988Z,4.00
2023-03-27T14:30:27.383Z,3.90
2023-03-27T14:33:20.566Z,3.90
2023-03-27T14:36:05.619Z,3.80
2023-03-27T14:38:41.617Z,3.80
2023-03-27T14:41:24.029Z,3.60
2023-03-27T14:44:04.261Z,3.60
2023-03-27T14:46:45.243Z,3.40
2023-03-27T14:49:24.732Z,3.30
2023-03-27T14:52:07.803Z,3.30
2023-03-27T14:55:01.588Z,3.20
2023-03-27T14:57:44.594Z,3.10
2023-03-27T15:00:23.540Z,3.10
2023-03-27T15:03:03.842Z,3.00
2023-03-27T15:05:57.252Z,2.90
2023-03-27T15:08:38.820Z,2.80
2023-03-27T15:11:37.436Z,2.70
2023-03-27T15:14:26.965Z,2.60
2023-03-27T15:17:02.906Z,2.50
2023-03-27T15:19:45.419Z,2.30
2023-03-27T15:22:24.488Z,2.30
2023-03-27T15:25:01.288Z,2.30
2023-03-27T15:27:39.236Z,2.20
2023-03-27T15:30:27.098Z,2.20
2023-03-27T15:33:04.421Z,2.20
2023-03-27T15:35:41.863Z,2.10
2023-03-27T15:38:17.357Z,2.10
2023-03-27T15:41:01.651Z,2.00
2023-03-27T15:43:35.437Z,2.00
2023-03-27T15:46:18.236Z,2.00
2023-03-27T15:48:56.435Z,1.90
2023-03-27T15:51:31.210Z,1.90
2023-03-27T15:54:25.483Z,1.90
2023-03-27T15:57:09.050Z,1.90
2023-03-27T15:59:51.960Z,1.90
2023-03-27T16:02:28.670Z,1.80
2023-03-27T16:05:02.572Z,1.80
2023-03-27T16:07:46.576Z,1.70
2023-03-27T16:10:33.951Z,1.80
2023-03-27T16:13:22.507Z,1.70
2023-03-27T16:16:01.600Z,1.80
2023-03-27T16:18:38.046Z,1.70
2023-03-27T16:21:13.942Z,1.70
2023-03-27T16:23:47.489Z,1.70
2023-03-27T16:26:24.998Z,1.70
2023-03-27T16:29:01.140Z,1.70
2023-03-27T16:31:34.793Z,1.70
2023-03-27T16:34:23.325Z,1.70
2023-03-27T16:36:57.530Z,1.60
2023-03-27T16:39:31.367Z,1.60
2023-03-27T16:42:05.045Z,1.50
2023-03-27T16:44:38.482Z,1.60
2023-03-27T16:47:12.265Z,1.50
2023-03-27T16:49:56.247Z,1.50
2023-03-27T16:52:40.809Z,1.50
2023-03-27T16:55:14.906Z,1.40
2023-03-27T16:57:48.597Z,1.40
2023-03-27T17:00:22.980Z,1.40
2023-03-27T17:02:57.144Z,1.40
2023-03-27T17:05:34.428Z,1.40
2023-03-27T17:08:08.808Z,1.30
2023-03-27T17:10:42.252Z,1.30
2023-03-27T17:13:15.774Z,1.10
2023-03-27T17:15:51.311Z,1.20
2023-03-27T17:18:25.082Z,1.20
2023-03-27T17:21:00.228Z,1.10
2023-03-27T17:23:33.731Z,1.10
2023-03-27T17:26:09.091Z,1.10
2023-03-27T17:28:44.554Z,1.10
2023-03-27T17:31:18.054Z,1.10
2023-03-27T17:33:51.677Z,1.10
2023-03-27T17:36:38.786Z,1.20
2023-03-27T17:39:14.931Z,1.10
2023-03-27T17:41:49.170Z,1.10
2023-03-27T17:44:22.613Z,1.10
2023-03-27T17:46:56.127Z,1.10
2023-03-27T17:49:31.784Z,1.10
2023-03-27T17:52:11.370Z,1.10
2023-03-27T17:54:45.671Z,1.20
2023-03-27T17:57:19.302Z,1.10
2023-03-27T17:59:52.938Z,1.10
2023-03-27T18:02:26.752Z,1.10
2023-03-27T18:05:00.360Z,1.20
2023-03-27T18:07:35.910Z,1.20
2023-03-27T18:10:14.402Z,1.20
2023-03-27T18:12:48.589Z,1.20
2023-03-27T18:15:22.163Z,1.20
2023-03-27T18:17:55.705Z,1.20
2023-03-27T18:20:29.233Z,1.20
2023-03-27T18:23:04.423Z,1.20
2023-03-27T18:25:41.926Z,1.20
2023-03-27T18:28:15.593Z,1.20
2023-03-27T18:30:58.116Z,1.10
2023-03-27T18:33:31.748Z,1.20
2023-03-27T18:36:10.538Z,1.20
2023-03-27T18:38:47.699Z,1.10
2023-03-27T18:41:22.583Z,1.10
2023-03-27T18:43:56.081Z,1.10
2023-03-27T18:46:29.674Z,1.10
2023-03-27T18:49:13.615Z,1.10
2023-03-27T18:51:55.695Z,1.10
2023-03-27T18:54:30.598Z,1.10
2023-03-27T18:57:04.188Z,1.10
2023-03-27T18:59:37.724Z,1.10
2023-03-27T19:02:11.578Z,1.00
2023-03-27T19:04:45.367Z,1.00
2023-03-27T19:07:18.854Z,1.00
2023-03-27T19:09:53.735Z,0.90
2023-03-27T19:12:27.424Z,0.80
2023-03-27T19:15:33.468Z,0.80
2023-03-27T19:18:30.447Z,0.80
2023-03-27T19:21:19.811Z,0.80
2023-03-27T19:24:08.974Z,0.80
2023-03-27T19:26:50.033Z,0.70
2023-03-27T19:29:23.528Z,0.70
2023-03-27T19:31:58.371Z,0.70
2023-03-27T19:34:41.971Z,0.70
2023-03-27T19:37:16.208Z,0.70
2023-03-27T19:39:50.642Z,0.80
2023-03-27T19:42:25.558Z,0.80
2023-03-27T19:44:59.226Z,0.80
2023-03-27T19:47:33.004Z,0.80
2023-03-27T19:50:08.602Z,0.80
2023-03-27T19:53:08.273Z,0.90
2023-03-27T19:55:43.252Z,0.80
2023-03-27T19:58:18.316Z,0.80
2023-03-27T20:00:52.644Z,0.80
2023-03-27T20:03:27.458Z,0.80
2023-03-27T20:06:07.589Z,0.80
2023-03-27T20:08:42.383Z,0.80
2023-03-27T20:11:21.230Z,0.90
2023-03-27T20:13:57.189Z,0.90
2023-03-27T20:16:30.830Z,0.90
2023-03-27T20:19:04.679Z,0.90
2023-03-27T20:21:40.275Z,1.00
2023-03-27T20:24:18.722Z,0.90
2023-03-27T20:26:58.365Z,0.90
2023-03-27T20:29:34.416Z,0.90
2023-03-27T20:32:08.916Z,0.80
2023-03-27T20:34:42.776Z,0.80
2023-03-27T20:37:16.611Z,0.80
2023-03-27T20:39:55.114Z,0.90
2023-03-27T20:42:30.859Z,0.80
2023-03-27T20:45:06.915Z,0.80
2023-03-27T20:47:43.142Z,0.80
2023-03-27T20:50:17.559Z,0.80
2023-03-27T20:52:51.274Z,0.80
2023-03-27T20:55:33.644Z,0.90
2023-03-27T20:58:11.532Z,0.80
2023-03-27T21:00:46.541Z,0.80
2023-03-27T21:03:20.979Z,0.80
2023-03-27T21:05:54.532Z,0.80
2023-03-27T21:08:28.426Z,0.80
2023-03-27T21:11:02.438Z,0.70
2023-03-27T21:13:36.415Z,0.80
2023-03-27T21:16:11.759Z,0.70
2023-03-27T21:18:45.323Z,0.70
2023-03-27T21:21:18.900Z,0.70
2023-03-27T21:23:53.961Z,0.70
2023-03-27T21:26:27.607Z,0.70
2023-03-27T21:29:03.326Z,0.70
2023-03-27T21:31:38.336Z,0.70
2023-03-27T21:34:11.915Z,0.70
2023-03-27T21:36:45.474Z,0.70
2023-03-27T21:39:19.347Z,0.70
2023-03-27T21:41:53.023Z,0.70
2023-03-27T21:44:26.550Z,0.70
2023-03-27T21:47:01.425Z,0.70
2023-03-27T21:49:34.917Z,0.60
2023-03-27T21:52:08.692Z,0.60
2023-03-27T21:54:47.406Z,0.60
2023-03-27T21:57:29.941Z,0.60
2023-03-27T22:00:04.264Z,0.60
2023-03-27T22:02:48.215Z,0.60
2023-03-27T22:05:22.402Z,0.60
2023-03-27T22:07:57.647Z,0.60
2023-03-27T22:10:31.253Z,0.70
2023-03-27T22:13:06.658Z,0.70
2023-03-27T22:15:40.199Z,0.60
2023-03-27T22:18:15.552Z,0.60
2023-03-27T22:20:49.060Z,0.60
2023-03-27T22:23:22.726Z,0.60
2023-03-27T22:25:56.472Z,0.60
2023-03-27T22:28:30.235Z,0.60
2023-03-27T22:31:04.634Z,0.60
2023-03-27T22:33:39.942Z,0.60
2023-03-27T22:36:14.548Z,0.60
2023-03-27T22:38:48.084Z,0.50
2023-03-27T22:41:22.268Z,0.50
2023-03-27T22:43:56.014Z,0.50
2023-03-27T22:46:30.159Z,0.50
2023-03-27T22:49:05.270Z,0.40
2023-03-27T22:51:38.737Z,0.50
2023-03-27T22:54:12.341Z,0.50
2023-03-27T22:56:46.330Z,0.50
2023-03-27T22:59:19.841Z,0.40
2023-03-27T23:01:53.366Z,0.40
2023-03-27T23:04:30.415Z,0.40
2023-03-27T23:07:03.971Z,0.40
2023-03-27T23:09:37.526Z,0.30
2023-03-27T23:12:11.214Z,0.30
2023-03-27T23:14:44.685Z,0.30
2023-03-27T23:17:18.257Z,0.30
2023-03-27T23:19:53.237Z,0.30
2023-03-27T23:22:26.715Z,0.30
2023-03-27T23:25:00.207Z,0.30
2023-03-27T23:27:33.861Z,0.30
2023-03-27T23:30:09.545Z,0.30
2023-03-27T23:32:43.038Z,0.30
2023-03-27T23:35:18.120Z,0.40
2023-03-27T23:37:51.543Z,0.30
2023-03-27T23:40:25.033Z,0.30
2023-03-27T23:42:58.476Z,0.30
2023-03-27T23:45:31.993Z,0.30
2023-03-27T23:48:05.555Z,0.30
2023-03-27T23:50:40.437Z,0.30
2023-03-27T23:53:13.940Z,0.30
2023-03-27T23:55:47.475Z,0.20
2023-03-27T23:58:21.198Z,0.20
